sensor_id;sensor_type;location;lat;lon;timestamp;temperature;humidity
4643;DHT22;2334;48.710;9.622;2024-01-10T00:01:16;-4.60;99.90
4643;DHT22;2334;48.710;9.622;2024-01-10T00:03:43;-4.60;99.90
4643;DHT22;2334;48.710;9.622;2024-01-10T00:06:10;-4.60;99.90
4643;DHT22;2334;48.710;9.622;2024-01-10T00:08:37;-4.60;99.90
4643;DHT22;2334;48.710;9.622;2024-01-10T00:11:04;-4.50;99.90
4643;DHT22;2334;48.710;9.622;2024-01-10T00:13:32;-4.50;99.90
4643;DHT22;2334;48.710;9.622;2024-01-10T00:16:01;-4.50;99.90
4643;DHT22;2334;48.710;9.622;2024-01-10T00:18:27;-4.60;99.90
4643;DHT22;2334;48.710;9.622;2024-01-10T00:20:54;-4.60;99.90
4643;DHT22;2334;48.710;9.622;2024-01-10T00:23:21;-4.60;99.90
4643;DHT22;2334;48.710;9.622;2024-01-10T00:25:48;-4.50;99.90
4643;DHT22;2334;48.710;9.622;2024-01-10T00:28:15;-4.60;99.90
4643;DHT22;2334;48.710;9.622;2024-01-10T00:30:43;-4.60;99.90
4643;DHT22;2334;48.710;9.622;2024-01-10T00:33:12;-4.50;99.90
4643;DHT22;2334;48.710;9.622;2024-01-10T00:35:38;-4.50;99.90
4643;DHT22;2334;48.710;9.622;2024-01-10T00:38:05;-4.60;99.90
4643;DHT22;2334;48.710;9.622;2024-01-10T00:40:32;-4.60;99.90
4643;DHT22;2334;48.710;9.622;2024-01-10T00:42:59;-4.60;99.90
4643;DHT22;2334;48.710;9.622;2024-01-10T00:45:26;-4.60;99.90
4643;DHT22;2334;48.710;9.622;2024-01-10T00:47:52;-4.50;99.90
4643;DHT22;2334;48.710;9.622;2024-01-10T00:50:21;-4.50;99.90
4643;DHT22;2334;48.710;9.622;2024-01-10T00:52:47;-4.40;99.90
4643;DHT22;2334;48.710;9.622;2024-01-10T00:55:14;-4.40;99.90
4643;DHT22;2334;48.710;9.622;2024-01-10T00:57:41;-4.50;99.90
4643;DHT22;2334;48.710;9.622;2024-01-10T01:00:09;-4.60;99.90
4643;DHT22;2334;48.710;9.622;2024-01-10T01:02:37;-4.60;99.90
4643;DHT22;2334;48.710;9.622;2024-01-10T01:05:05;-4.50;99.90
4643;DHT22;2334;48.710;9.622;2024-01-10T01:07:34;-4.50;99.90
4643;DHT22;2334;48.710;9.622;2024-01-10T01:10:01;-4.40;99.90
4643;DHT22;2334;48.710;9.622;2024-01-10T01:12:28;-4.40;99.90
4643;DHT22;2334;48.710;9.622;2024-01-10T01:14:56;-4.40;99.90
4643;DHT22;2334;48.710;9.622;2024-01-10T01:17:23;-4.30;99.90
4643;DHT22;2334;48.710;9.622;2024-01-10T01:19:49;-4.30;99.90
4643;DHT22;2334;48.710;9.622;2024-01-10T01:22:16;-4.30;99.90
4643;DHT22;2334;48.710;9.622;2024-01-10T01:24:44;-4.20;99.90
4643;DHT22;2334;48.710;9.622;2024-01-10T01:27:12;-4.30;99.90
4643;DHT22;2334;48.710;9.622;2024-01-10T01:29:39;-4.30;99.90
4643;DHT22;2334;48.710;9.622;2024-01-10T01:32:06;-4.30;99.90
4643;DHT22;2334;48.710;9.622;2024-01-10T01:34:32;-4.20;99.90
4643;DHT22;2334;48.710;9.622;2024-01-10T01:36:59;-4.20;99.90
4643;DHT22;2334;48.710;9.622;2024-01-10T01:39:27;-4.20;99.90
4643;DHT22;2334;48.710;9.622;2024-01-10T01:41:56;-4.20;99.90
4643;DHT22;2334;48.710;9.622;2024-01-10T01:44:23;-4.20;99.90
4643;DHT22;2334;48.710;9.622;2024-01-10T01:46:50;-4.20;99.90
4643;DHT22;2334;48.710;9.622;2024-01-10T01:49:17;-4.20;99.90
4643;DHT22;2334;48.710;9.622;2024-01-10T01:51:45;-4.20;99.90
4643;DHT22;2334;48.710;9.622;2024-01-10T01:54:12;-4.20;99.90
4643;DHT22;2334;48.710;9.622;2024-01-10T01:56:39;-4.20;99.90
4643;DHT22;2334;48.710;9.622;2024-01-10T01:59:08;-4.10;99.90
4643;DHT22;2334;48.710;9.622;2024-01-10T02:01:35;-4.10;99.90
4643;DHT22;2334;48.710;9.622;2024-01-10T02:04:02;-4.10;99.90
4643;DHT22;2334;48.710;9.622;2024-01-10T02:06:29;-4.10;99.90
4643;DHT22;2334;48.710;9.622;2024-01-10T02:08:57;-4.10;99.90
4643;DHT22;2334;48.710;9.622;2024-01-10T02:11:25;-4.10;99.90
4643;DHT22;2334;48.710;9.622;2024-01-10T02:13:52;-4.10;99.90
4643;DHT22;2334;48.710;9.622;2024-01-10T02:16:22;-4.10;99.90
4643;DHT22;2334;48.710;9.622;2024-01-10T02:18:50;-4.10;99.90
4643;DHT22;2334;48.710;9.622;2024-01-10T02:21:20;-4.10;99.90
4643;DHT22;2334;48.710;9.622;2024-01-10T02:23:47;-4.10;99.90
4643;DHT22;2334;48.710;9.622;2024-01-10T02:26:15;-4.10;99.90
4643;DHT22;2334;48.710;9.622;2024-01-10T02:28:42;-4.10;99.90
4643;DHT22;2334;48.710;9.622;2024-01-10T02:31:09;-4.10;99.90
4643;DHT22;2334;48.710;9.622;2024-01-10T02:33:36;-4.20;99.90
4643;DHT22;2334;48.710;9.622;2024-01-10T02:36:04;-4.20;99.90
4643;DHT22;2334;48.710;9.622;2024-01-10T02:38:31;-4.20;99.90
4643;DHT22;2334;48.710;9.622;2024-01-10T02:40:58;-4.20;99.90
4643;DHT22;2334;48.710;9.622;2024-01-10T02:43:29;-4.20;99.90
4643;DHT22;2334;48.710;9.622;2024-01-10T02:45:56;-4.20;99.90
4643;DHT22;2334;48.710;9.622;2024-01-10T02:48:24;-4.20;99.90
4643;DHT22;2334;48.710;9.622;2024-01-10T02:50:51;-4.20;99.90
4643;DHT22;2334;48.710;9.622;2024-01-10T02:53:20;-4.20;99.90
4643;DHT22;2334;48.710;9.622;2024-01-10T02:55:46;-4.20;99.90
4643;DHT22;2334;48.710;9.622;2024-01-10T02:58:15;-4.10;99.90
4643;DHT22;2334;48.710;9.622;2024-01-10T03:00:43;-4.10;99.90
4643;DHT22;2334;48.710;9.622;2024-01-10T03:03:10;-4.00;99.90
4643;DHT22;2334;48.710;9.622;2024-01-10T03:05:37;-4.10;99.90
4643;DHT22;2334;48.710;9.622;2024-01-10T03:08:05;-4.00;99.90
4643;DHT22;2334;48.710;9.622;2024-01-10T03:10:32;-4.00;99.90
4643;DHT22;2334;48.710;9.622;2024-01-10T03:12:59;-4.00;99.90
4643;DHT22;2334;48.710;9.622;2024-01-10T03:15:26;-4.00;99.90
4643;DHT22;2334;48.710;9.622;2024-01-10T03:17:54;-4.00;99.90
4643;DHT22;2334;48.710;9.622;2024-01-10T03:20:21;-4.00;99.90
4643;DHT22;2334;48.710;9.622;2024-01-10T03:22:47;-4.00;99.90
4643;DHT22;2334;48.710;9.622;2024-01-10T03:25:14;-4.00;99.90
4643;DHT22;2334;48.710;9.622;2024-01-10T03:27:41;-4.00;99.90
4643;DHT22;2334;48.710;9.622;2024-01-10T03:30:09;-4.00;99.90
4643;DHT22;2334;48.710;9.622;2024-01-10T03:32:36;-4.00;99.90
4643;DHT22;2334;48.710;9.622;2024-01-10T03:35:05;-4.00;99.90
4643;DHT22;2334;48.710;9.622;2024-01-10T03:37:33;-4.00;99.90
4643;DHT22;2334;48.710;9.622;2024-01-10T03:40:00;-4.00;99.90
4643;DHT22;2334;48.710;9.622;2024-01-10T03:42:27;-4.00;99.90
4643;DHT22;2334;48.710;9.622;2024-01-10T03:44:54;-3.90;99.90
4643;DHT22;2334;48.710;9.622;2024-01-10T03:47:20;-3.90;99.90
4643;DHT22;2334;48.710;9.622;2024-01-10T03:49:47;-3.90;99.90
4643;DHT22;2334;48.710;9.622;2024-01-10T03:52:16;-3.90;99.90
4643;DHT22;2334;48.710;9.622;2024-01-10T03:54:42;-3.90;99.90
4643;DHT22;2334;48.710;9.622;2024-01-10T03:57:09;-3.80;99.90
4643;DHT22;2334;48.710;9.622;2024-01-10T03:59:36;-3.90;99.90
4643;DHT22;2334;48.710;9.622;2024-01-10T04:02:03;-3.90;99.90
4643;DHT22;2334;48.710;9.622;2024-01-10T04:04:30;-3.90;99.90
4643;DHT22;2334;48.710;9.622;2024-01-10T04:06:57;-3.90;99.90
4643;DHT22;2334;48.710;9.622;2024-01-10T04:09:25;-3.90;99.90
4643;DHT22;2334;48.710;9.622;2024-01-10T04:11:52;-3.90;99.90
4643;DHT22;2334;48.710;9.622;2024-01-10T04:14:19;-3.80;99.90
4643;DHT22;2334;48.710;9.622;2024-01-10T04:16:46;-3.80;99.90
4643;DHT22;2334;48.710;9.622;2024-01-10T04:19:14;-3.80;99.90
4643;DHT22;2334;48.710;9.622;2024-01-10T04:21:41;-3.80;99.90
4643;DHT22;2334;48.710;9.622;2024-01-10T04:24:08;-3.70;99.90
4643;DHT22;2334;48.710;9.622;2024-01-10T04:26:36;-3.70;99.90
4643;DHT22;2334;48.710;9.622;2024-01-10T04:29:03;-3.70;99.90
4643;DHT22;2334;48.710;9.622;2024-01-10T04:31:29;-3.70;99.90
4643;DHT22;2334;48.710;9.622;2024-01-10T04:33:56;-3.70;99.90
4643;DHT22;2334;48.710;9.622;2024-01-10T04:36:23;-3.70;99.90
4643;DHT22;2334;48.710;9.622;2024-01-10T04:38:50;-3.70;99.90
4643;DHT22;2334;48.710;9.622;2024-01-10T04:41:17;-3.70;99.90
4643;DHT22;2334;48.710;9.622;2024-01-10T04:43:46;-3.70;99.90
4643;DHT22;2334;48.710;9.622;2024-01-10T04:46:12;-3.70;99.90
4643;DHT22;2334;48.710;9.622;2024-01-10T04:48:39;-3.60;99.90
4643;DHT22;2334;48.710;9.622;2024-01-10T04:51:06;-3.60;99.90
4643;DHT22;2334;48.710;9.622;2024-01-10T04:53:33;-3.60;99.90
4643;DHT22;2334;48.710;9.622;2024-01-10T04:56:00;-3.60;99.90
4643;DHT22;2334;48.710;9.622;2024-01-10T04:58:27;-3.60;99.90
4643;DHT22;2334;48.710;9.622;2024-01-10T05:00:56;-3.60;99.90
4643;DHT22;2334;48.710;9.622;2024-01-10T05:03:23;-3.60;99.90
4643;DHT22;2334;48.710;9.622;2024-01-10T05:05:50;-3.50;99.90
4643;DHT22;2334;48.710;9.622;2024-01-10T05:08:17;-3.50;99.90
4643;DHT22;2334;48.710;9.622;2024-01-10T05:10:45;-3.50;99.90
4643;DHT22;2334;48.710;9.622;2024-01-10T05:13:12;-3.50;99.90
4643;DHT22;2334;48.710;9.622;2024-01-10T05:15:39;-3.50;99.90
4643;DHT22;2334;48.710;9.622;2024-01-10T05:18:08;-3.50;99.90
4643;DHT22;2334;48.710;9.622;2024-01-10T05:20:35;-3.40;99.90
4643;DHT22;2334;48.710;9.622;2024-01-10T05:23:03;-3.40;99.90
4643;DHT22;2334;48.710;9.622;2024-01-10T05:25:31;-3.50;99.90
4643;DHT22;2334;48.710;9.622;2024-01-10T05:27:58;-3.40;99.90
4643;DHT22;2334;48.710;9.622;2024-01-10T05:30:25;-3.40;99.90
4643;DHT22;2334;48.710;9.622;2024-01-10T05:32:52;-3.40;99.90
4643;DHT22;2334;48.710;9.622;2024-01-10T05:35:19;-3.50;99.90
4643;DHT22;2334;48.710;9.622;2024-01-10T05:37:46;-3.50;99.90
4643;DHT22;2334;48.710;9.622;2024-01-10T05:40:13;-3.50;99.90
4643;DHT22;2334;48.710;9.622;2024-01-10T05:42:40;-3.50;99.90
4643;DHT22;2334;48.710;9.622;2024-01-10T05:45:07;-3.50;99.90
4643;DHT22;2334;48.710;9.622;2024-01-10T05:47:34;-3.50;99.90
4643;DHT22;2334;48.710;9.622;2024-01-10T05:50:01;-3.50;99.90
4643;DHT22;2334;48.710;9.622;2024-01-10T05:52:33;-3.50;99.90
4643;DHT22;2334;48.710;9.622;2024-01-10T05:55:00;-3.50;99.90
4643;DHT22;2334;48.710;9.622;2024-01-10T05:57:28;-3.50;99.90
4643;DHT22;2334;48.710;9.622;2024-01-10T05:59:55;-3.50;99.90
4643;DHT22;2334;48.710;9.622;2024-01-10T06:02:23;-3.50;99.90
4643;DHT22;2334;48.710;9.622;2024-01-10T06:04:50;-3.50;99.90
4643;DHT22;2334;48.710;9.622;2024-01-10T06:07:16;-3.40;99.90
4643;DHT22;2334;48.710;9.622;2024-01-10T06:09:45;-3.40;99.90
4643;DHT22;2334;48.710;9.622;2024-01-10T06:12:11;-3.40;99.90
4643;DHT22;2334;48.710;9.622;2024-01-10T06:14:38;-3.40;99.90
4643;DHT22;2334;48.710;9.622;2024-01-10T06:17:05;-3.40;99.90
4643;DHT22;2334;48.710;9.622;2024-01-10T06:19:32;-3.30;99.90
4643;DHT22;2334;48.710;9.622;2024-01-10T06:21:59;-3.40;99.90
4643;DHT22;2334;48.710;9.622;2024-01-10T06:24:26;-3.40;99.90
4643;DHT22;2334;48.710;9.622;2024-01-10T06:26:54;-3.40;99.90
4643;DHT22;2334;48.710;9.622;2024-01-10T06:29:21;-3.40;99.90
4643;DHT22;2334;48.710;9.622;2024-01-10T06:31:48;-3.40;99.90
4643;DHT22;2334;48.710;9.622;2024-01-10T06:34:15;-3.40;99.90
4643;DHT22;2334;48.710;9.622;2024-01-10T06:36:42;-3.40;99.90
4643;DHT22;2334;48.710;9.622;2024-01-10T06:39:09;-3.40;99.90
4643;DHT22;2334;48.710;9.622;2024-01-10T06:41:38;-3.40;99.90
4643;DHT22;2334;48.710;9.622;2024-01-10T06:44:06;-3.50;99.90
4643;DHT22;2334;48.710;9.622;2024-01-10T06:46:33;-3.40;99.90
4643;DHT22;2334;48.710;9.622;2024-01-10T06:49:00;-3.40;99.90
4643;DHT22;2334;48.710;9.622;2024-01-10T06:51:27;-3.40;99.90
4643;DHT22;2334;48.710;9.622;2024-01-10T06:53:54;-3.40;99.90
4643;DHT22;2334;48.710;9.622;2024-01-10T06:56:28;-3.40;99.90
4643;DHT22;2334;48.710;9.622;2024-01-10T06:58:55;-3.40;99.90
4643;DHT22;2334;48.710;9.622;2024-01-10T07:01:23;-3.40;99.90
4643;DHT22;2334;48.710;9.622;2024-01-10T07:03:50;-3.40;99.90
4643;DHT22;2334;48.710;9.622;2024-01-10T07:06:17;-3.40;99.90
4643;DHT22;2334;48.710;9.622;2024-01-10T07:08:44;-3.40;99.90
4643;DHT22;2334;48.710;9.622;2024-01-10T07:11:11;-3.40;99.90
4643;DHT22;2334;48.710;9.622;2024-01-10T07:13:42;-3.40;99.90
4643;DHT22;2334;48.710;9.622;2024-01-10T07:16:10;-3.40;99.90
4643;DHT22;2334;48.710;9.622;2024-01-10T07:18:41;-3.40;99.90
4643;DHT22;2334;48.710;9.622;2024-01-10T07:21:09;-3.40;99.90
4643;DHT22;2334;48.710;9.622;2024-01-10T07:23:36;-3.50;99.90
4643;DHT22;2334;48.710;9.622;2024-01-10T07:26:04;-3.40;99.90
4643;DHT22;2334;48.710;9.622;2024-01-10T07:28:31;-3.40;99.90
4643;DHT22;2334;48.710;9.622;2024-01-10T07:30:58;-3.50;99.90
4643;DHT22;2334;48.710;9.622;2024-01-10T07:33:26;-3.50;99.90
4643;DHT22;2334;48.710;9.622;2024-01-10T07:35:54;-3.50;99.90
4643;DHT22;2334;48.710;9.622;2024-01-10T07:38:21;-3.50;99.90
4643;DHT22;2334;48.710;9.622;2024-01-10T07:40:47;-3.50;99.90
4643;DHT22;2334;48.710;9.622;2024-01-10T07:43:14;-3.50;99.90
4643;DHT22;2334;48.710;9.622;2024-01-10T07:45:41;-3.50;99.90
4643;DHT22;2334;48.710;9.622;2024-01-10T07:48:08;-3.40;99.90
4643;DHT22;2334;48.710;9.622;2024-01-10T07:50:36;-3.40;99.90
4643;DHT22;2334;48.710;9.622;2024-01-10T07:53:04;-3.40;99.90
4643;DHT22;2334;48.710;9.622;2024-01-10T07:55:33;-3.40;99.90
4643;DHT22;2334;48.710;9.622;2024-01-10T07:58:00;-3.30;99.90
4643;DHT22;2334;48.710;9.622;2024-01-10T08:00:27;-3.30;99.90
4643;DHT22;2334;48.710;9.622;2024-01-10T08:02:55;-3.20;99.90
4643;DHT22;2334;48.710;9.622;2024-01-10T08:05:23;-3.30;99.90
4643;DHT22;2334;48.710;9.622;2024-01-10T08:07:50;-3.20;99.90
4643;DHT22;2334;48.710;9.622;2024-01-10T08:10:19;-3.20;99.90
4643;DHT22;2334;48.710;9.622;2024-01-10T08:12:46;-3.10;99.90
4643;DHT22;2334;48.710;9.622;2024-01-10T08:15:13;-3.00;99.90
4643;DHT22;2334;48.710;9.622;2024-01-10T08:17:40;-3.00;99.90
4643;DHT22;2334;48.710;9.622;2024-01-10T08:20:08;-2.90;99.90
4643;DHT22;2334;48.710;9.622;2024-01-10T08:22:36;-3.00;99.90
4643;DHT22;2334;48.710;9.622;2024-01-10T08:25:04;-2.90;99.90
4643;DHT22;2334;48.710;9.622;2024-01-10T08:27:32;-2.90;99.90
4643;DHT22;2334;48.710;9.622;2024-01-10T08:30:00;-2.80;99.90
4643;DHT22;2334;48.710;9.622;2024-01-10T08:32:30;-2.70;99.90
4643;DHT22;2334;48.710;9.622;2024-01-10T08:34:57;-2.70;99.90
4643;DHT22;2334;48.710;9.622;2024-01-10T08:37:24;-2.50;99.90
4643;DHT22;2334;48.710;9.622;2024-01-10T08:39:51;-2.50;99.90
4643;DHT22;2334;48.710;9.622;2024-01-10T08:42:18;-2.40;99.90
4643;DHT22;2334;48.710;9.622;2024-01-10T08:44:46;-2.30;99.90
4643;DHT22;2334;48.710;9.622;2024-01-10T08:47:15;-2.40;99.90
4643;DHT22;2334;48.710;9.622;2024-01-10T08:49:42;-2.40;99.90
4643;DHT22;2334;48.710;9.622;2024-01-10T08:52:09;-2.30;99.90
4643;DHT22;2334;48.710;9.622;2024-01-10T08:54:36;-2.20;99.90
4643;DHT22;2334;48.710;9.622;2024-01-10T08:57:03;-2.10;99.90
4643;DHT22;2334;48.710;9.622;2024-01-10T08:59:30;-1.90;99.90
4643;DHT22;2334;48.710;9.622;2024-01-10T09:01:58;-1.80;99.90
4643;DHT22;2334;48.710;9.622;2024-01-10T09:04:25;-1.80;99.90
4643;DHT22;2334;48.710;9.622;2024-01-10T09:06:52;-1.80;99.90
4643;DHT22;2334;48.710;9.622;2024-01-10T09:09:19;-1.60;99.90
4643;DHT22;2334;48.710;9.622;2024-01-10T09:11:46;-1.80;99.90
4643;DHT22;2334;48.710;9.622;2024-01-10T09:14:14;-1.60;99.90
4643;DHT22;2334;48.710;9.622;2024-01-10T09:16:41;-1.70;99.90
4643;DHT22;2334;48.710;9.622;2024-01-10T09:19:09;-1.50;99.90
4643;DHT22;2334;48.710;9.622;2024-01-10T09:21:36;-1.30;99.90
4643;DHT22;2334;48.710;9.622;2024-01-10T09:24:03;-1.30;99.90
4643;DHT22;2334;48.710;9.622;2024-01-10T09:26:34;-1.30;99.90
4643;DHT22;2334;48.710;9.622;2024-01-10T09:29:01;-1.30;99.90
4643;DHT22;2334;48.710;9.622;2024-01-10T09:31:28;-1.20;99.90
4643;DHT22;2334;48.710;9.622;2024-01-10T09:33:55;-1.30;99.90
4643;DHT22;2334;48.710;9.622;2024-01-10T09:36:24;-1.40;99.90
4643;DHT22;2334;48.710;9.622;2024-01-10T09:38:51;-1.30;99.90
4643;DHT22;2334;48.710;9.622;2024-01-10T09:41:19;-1.40;99.90
4643;DHT22;2334;48.710;9.622;2024-01-10T09:43:46;-1.40;99.90
4643;DHT22;2334;48.710;9.622;2024-01-10T09:46:14;-1.40;99.90
4643;DHT22;2334;48.710;9.622;2024-01-10T09:48:43;-1.30;99.90
4643;DHT22;2334;48.710;9.622;2024-01-10T09:51:12;-1.20;99.90
4643;DHT22;2334;48.710;9.622;2024-01-10T09:53:44;-1.10;99.90
4643;DHT22;2334;48.710;9.622;2024-01-10T09:56:13;-1.00;99.90
4643;DHT22;2334;48.710;9.622;2024-01-10T09:58:43;-1.00;99.90
4643;DHT22;2334;48.710;9.622;2024-01-10T10:01:11;-0.90;99.90
4643;DHT22;2334;48.710;9.622;2024-01-10T10:03:41;-0.80;99.90
4643;DHT22;2334;48.710;9.622;2024-01-10T10:06:12;-0.70;99.90
4643;DHT22;2334;48.710;9.622;2024-01-10T10:08:40;-0.50;99.90
4643;DHT22;2334;48.710;9.622;2024-01-10T10:11:08;-0.40;99.90
4643;DHT22;2334;48.710;9.622;2024-01-10T10:13:38;-0.40;99.90
4643;DHT22;2334;48.710;9.622;2024-01-10T10:16:08;-0.30;99.90
4643;DHT22;2334;48.710;9.622;2024-01-10T10:18:36;-0.20;99.90
4643;DHT22;2334;48.710;9.622;2024-01-10T10:21:07;-0.20;99.90
4643;DHT22;2334;48.710;9.622;2024-01-10T10:23:34;-0.20;99.90
4643;DHT22;2334;48.710;9.622;2024-01-10T10:26:12;-0.10;99.90
4643;DHT22;2334;48.710;9.622;2024-01-10T10:28:45;0.10;99.90
4643;DHT22;2334;48.710;9.622;2024-01-10T10:31:11;0.10;99.90
4643;DHT22;2334;48.710;9.622;2024-01-10T10:33:39;0.20;99.90
4643;DHT22;2334;48.710;9.622;2024-01-10T10:36:06;0.20;99.90
4643;DHT22;2334;48.710;9.622;2024-01-10T10:38:33;0.30;99.90
4643;DHT22;2334;48.710;9.622;2024-01-10T10:41:00;0.10;99.90
4643;DHT22;2334;48.710;9.622;2024-01-10T10:43:30;-0.10;99.90
4643;DHT22;2334;48.710;9.622;2024-01-10T10:46:01;0.20;99.90
4643;DHT22;2334;48.710;9.622;2024-01-10T10:48:32;0.30;99.90
4643;DHT22;2334;48.710;9.622;2024-01-10T10:51:04;0.40;99.90
4643;DHT22;2334;48.710;9.622;2024-01-10T10:53:34;0.70;99.90
4643;DHT22;2334;48.710;9.622;2024-01-10T10:56:03;0.90;99.90
4643;DHT22;2334;48.710;9.622;2024-01-10T10:58:34;0.90;99.90
4643;DHT22;2334;48.710;9.622;2024-01-10T11:01:04;1.00;99.90
4643;DHT22;2334;48.710;9.622;2024-01-10T11:03:34;0.60;99.90
4643;DHT22;2334;48.710;9.622;2024-01-10T11:06:02;0.90;99.90
4643;DHT22;2334;48.710;9.622;2024-01-10T11:08:32;1.00;99.90
4643;DHT22;2334;48.710;9.622;2024-01-10T11:11:02;1.20;99.90
4643;DHT22;2334;48.710;9.622;2024-01-10T11:13:43;1.20;99.90
4643;DHT22;2334;48.710;9.622;2024-01-10T11:22:39;1.40;99.90
4643;DHT22;2334;48.710;9.622;2024-01-10T11:25:09;1.30;99.90
4643;DHT22;2334;48.710;9.622;2024-01-10T11:27:36;1.30;99.90
4643;DHT22;2334;48.710;9.622;2024-01-10T11:30:06;1.40;99.90
4643;DHT22;2334;48.710;9.622;2024-01-10T11:32:33;1.10;99.90
4643;DHT22;2334;48.710;9.622;2024-01-10T11:35:05;0.90;99.90
4643;DHT22;2334;48.710;9.622;2024-01-10T11:37:42;0.90;99.90
4643;DHT22;2334;48.710;9.622;2024-01-10T11:40:11;1.20;99.90
4643;DHT22;2334;48.710;9.622;2024-01-10T11:42:42;1.30;99.90
4643;DHT22;2334;48.710;9.622;2024-01-10T11:47:59;1.20;99.90
4643;DHT22;2334;48.710;9.622;2024-01-10T11:50:27;1.20;99.90
4643;DHT22;2334;48.710;9.622;2024-01-10T11:52:56;1.30;99.90
4643;DHT22;2334;48.710;9.622;2024-01-10T11:55:47;1.40;99.90
4643;DHT22;2334;48.710;9.622;2024-01-10T11:58:14;1.60;99.90
4643;DHT22;2334;48.710;9.622;2024-01-10T12:00:44;1.60;99.90
4643;DHT22;2334;48.710;9.622;2024-01-10T12:03:13;1.70;99.90
4643;DHT22;2334;48.710;9.622;2024-01-10T12:05:40;1.70;99.90
4643;DHT22;2334;48.710;9.622;2024-01-10T12:08:09;1.70;99.90
4643;DHT22;2334;48.710;9.622;2024-01-10T12:10:38;1.80;99.90
4643;DHT22;2334;48.710;9.622;2024-01-10T12:13:06;1.80;99.90
4643;DHT22;2334;48.710;9.622;2024-01-10T12:15:37;1.70;99.90
4643;DHT22;2334;48.710;9.622;2024-01-10T12:18:06;1.80;99.90
4643;DHT22;2334;48.710;9.622;2024-01-10T12:20:33;1.90;99.90
4643;DHT22;2334;48.710;9.622;2024-01-10T12:23:01;2.00;99.90
4643;DHT22;2334;48.710;9.622;2024-01-10T12:25:28;1.90;99.90
4643;DHT22;2334;48.710;9.622;2024-01-10T12:27:55;2.00;99.90
4643;DHT22;2334;48.710;9.622;2024-01-10T12:30:28;1.90;99.90
4643;DHT22;2334;48.710;9.622;2024-01-10T12:32:54;2.00;99.90
4643;DHT22;2334;48.710;9.622;2024-01-10T12:35:23;2.00;99.90
4643;DHT22;2334;48.710;9.622;2024-01-10T12:37:56;1.90;99.90
4643;DHT22;2334;48.710;9.622;2024-01-10T12:40:23;1.90;99.90
4643;DHT22;2334;48.710;9.622;2024-01-10T12:43:01;1.60;99.90
4643;DHT22;2334;48.710;9.622;2024-01-10T12:45:28;1.60;99.90
4643;DHT22;2334;48.710;9.622;2024-01-10T12:47:55;1.60;99.90
4643;DHT22;2334;48.710;9.622;2024-01-10T12:50:25;1.70;99.90
4643;DHT22;2334;48.710;9.622;2024-01-10T12:52:52;1.60;99.90
4643;DHT22;2334;48.710;9.622;2024-01-10T12:55:19;1.60;99.90
4643;DHT22;2334;48.710;9.622;2024-01-10T12:57:46;1.50;99.90
4643;DHT22;2334;48.710;9.622;2024-01-10T13:00:13;1.50;99.90
4643;DHT22;2334;48.710;9.622;2024-01-10T13:02:41;1.60;99.90
4643;DHT22;2334;48.710;9.622;2024-01-10T13:05:08;1.60;99.90
4643;DHT22;2334;48.710;9.622;2024-01-10T13:07:37;1.60;99.90
4643;DHT22;2334;48.710;9.622;2024-01-10T13:10:04;1.60;99.90
4643;DHT22;2334;48.710;9.622;2024-01-10T13:12:31;1.70;99.90
4643;DHT22;2334;48.710;9.622;2024-01-10T13:14:58;1.70;99.90
4643;DHT22;2334;48.710;9.622;2024-01-10T13:17:25;1.60;99.90
4643;DHT22;2334;48.710;9.622;2024-01-10T13:19:52;1.60;99.90
4643;DHT22;2334;48.710;9.622;2024-01-10T13:22:19;1.60;99.90
4643;DHT22;2334;48.710;9.622;2024-01-10T13:24:48;1.60;99.90
4643;DHT22;2334;48.710;9.622;2024-01-10T13:27:15;1.70;99.90
4643;DHT22;2334;48.710;9.622;2024-01-10T13:29:41;1.70;99.90
4643;DHT22;2334;48.710;9.622;2024-01-10T13:32:08;1.70;99.90
4643;DHT22;2334;48.710;9.622;2024-01-10T13:34:36;1.70;99.90
4643;DHT22;2334;48.710;9.622;2024-01-10T13:37:03;1.80;99.90
4643;DHT22;2334;48.710;9.622;2024-01-10T13:39:30;1.70;99.90
4643;DHT22;2334;48.710;9.622;2024-01-10T13:41:58;1.80;99.90
4643;DHT22;2334;48.710;9.622;2024-01-10T13:44:25;1.80;99.90
4643;DHT22;2334;48.710;9.622;2024-01-10T13:46:52;1.80;99.90
4643;DHT22;2334;48.710;9.622;2024-01-10T13:49:19;1.80;99.90
4643;DHT22;2334;48.710;9.622;2024-01-10T13:51:46;1.80;99.90
4643;DHT22;2334;48.710;9.622;2024-01-10T13:54:12;1.80;99.90
4643;DHT22;2334;48.710;9.622;2024-01-10T13:56:39;1.90;99.90
4643;DHT22;2334;48.710;9.622;2024-01-10T13:59:08;1.80;99.90
4643;DHT22;2334;48.710;9.622;2024-01-10T14:01:39;1.80;99.90
4643;DHT22;2334;48.710;9.622;2024-01-10T14:04:07;1.90;99.90
4643;DHT22;2334;48.710;9.622;2024-01-10T14:06:34;1.90;99.90
4643;DHT22;2334;48.710;9.622;2024-01-10T14:09:00;1.90;99.90
4643;DHT22;2334;48.710;9.622;2024-01-10T14:11:27;1.90;99.90
4643;DHT22;2334;48.710;9.622;2024-01-10T14:13:54;1.90;99.90
4643;DHT22;2334;48.710;9.622;2024-01-10T14:16:23;1.90;99.90
4643;DHT22;2334;48.710;9.622;2024-01-10T14:18:49;1.90;99.90
4643;DHT22;2334;48.710;9.622;2024-01-10T14:21:16;1.90;99.90
4643;DHT22;2334;48.710;9.622;2024-01-10T14:23:45;1.90;99.90
4643;DHT22;2334;48.710;9.622;2024-01-10T14:26:13;1.90;99.90
4643;DHT22;2334;48.710;9.622;2024-01-10T14:28:40;1.90;99.90
4643;DHT22;2334;48.710;9.622;2024-01-10T14:31:07;1.90;99.90
4643;DHT22;2334;48.710;9.622;2024-01-10T14:33:36;1.90;99.90
4643;DHT22;2334;48.710;9.622;2024-01-10T14:36:04;1.90;99.90
4643;DHT22;2334;48.710;9.622;2024-01-10T14:38:31;1.90;99.90
4643;DHT22;2334;48.710;9.622;2024-01-10T14:40:57;1.90;99.90
4643;DHT22;2334;48.710;9.622;2024-01-10T14:43:25;1.80;99.90
4643;DHT22;2334;48.710;9.622;2024-01-10T14:45:52;1.80;99.90
4643;DHT22;2334;48.710;9.622;2024-01-10T14:48:20;1.70;99.90
4643;DHT22;2334;48.710;9.622;2024-01-10T14:50:48;1.70;99.90
4643;DHT22;2334;48.710;9.622;2024-01-10T14:53:15;1.60;99.90
4643;DHT22;2334;48.710;9.622;2024-01-10T14:55:42;1.50;99.90
4643;DHT22;2334;48.710;9.622;2024-01-10T14:58:08;1.40;99.90
4643;DHT22;2334;48.710;9.622;2024-01-10T15:00:35;1.40;99.90
4643;DHT22;2334;48.710;9.622;2024-01-10T15:03:02;1.40;99.90
4643;DHT22;2334;48.710;9.622;2024-01-10T15:05:30;1.30;99.90
4643;DHT22;2334;48.710;9.622;2024-01-10T15:07:58;1.20;99.90
4643;DHT22;2334;48.710;9.622;2024-01-10T15:10:26;1.20;99.90
4643;DHT22;2334;48.710;9.622;2024-01-10T15:12:53;1.10;99.90
4643;DHT22;2334;48.710;9.622;2024-01-10T15:15:20;1.10;99.90
4643;DHT22;2334;48.710;9.622;2024-01-10T15:17:47;1.00;99.90
4643;DHT22;2334;48.710;9.622;2024-01-10T15:20:15;1.00;99.90
4643;DHT22;2334;48.710;9.622;2024-01-10T15:22:41;0.90;99.90
4643;DHT22;2334;48.710;9.622;2024-01-10T15:25:11;0.90;99.90
4643;DHT22;2334;48.710;9.622;2024-01-10T15:27:38;0.90;99.90
4643;DHT22;2334;48.710;9.622;2024-01-10T15:30:05;0.80;99.90
4643;DHT22;2334;48.710;9.622;2024-01-10T15:32:32;0.80;99.90
4643;DHT22;2334;48.710;9.622;2024-01-10T15:34:59;0.70;99.90
4643;DHT22;2334;48.710;9.622;2024-01-10T15:37:29;0.70;99.90
4643;DHT22;2334;48.710;9.622;2024-01-10T15:39:56;0.60;99.90
4643;DHT22;2334;48.710;9.622;2024-01-10T15:42:27;0.60;99.90
4643;DHT22;2334;48.710;9.622;2024-01-10T15:44:56;0.60;99.90
4643;DHT22;2334;48.710;9.622;2024-01-10T15:47:23;0.50;99.90
4643;DHT22;2334;48.710;9.622;2024-01-10T15:49:49;0.40;99.90
4643;DHT22;2334;48.710;9.622;2024-01-10T15:52:16;0.40;99.90
4643;DHT22;2334;48.710;9.622;2024-01-10T15:54:44;0.40;99.90
4643;DHT22;2334;48.710;9.622;2024-01-10T15:57:13;0.30;99.90
4643;DHT22;2334;48.710;9.622;2024-01-10T15:59:41;0.20;99.90
4643;DHT22;2334;48.710;9.622;2024-01-10T16:02:08;0.10;99.90
4643;DHT22;2334;48.710;9.622;2024-01-10T16:04:35;0.10;99.90
4643;DHT22;2334;48.710;9.622;2024-01-10T16:07:02;0.00;99.90
4643;DHT22;2334;48.710;9.622;2024-01-10T16:09:29;0.00;99.90
4643;DHT22;2334;48.710;9.622;2024-01-10T16:11:56;0.00;99.90
4643;DHT22;2334;48.710;9.622;2024-01-10T16:14:22;-0.10;99.90
4643;DHT22;2334;48.710;9.622;2024-01-10T16:16:54;-0.20;99.90
4643;DHT22;2334;48.710;9.622;2024-01-10T16:19:22;-0.20;99.90